Time;durP1;ratioP1;P1;durP2;ratioP2;P2;SDS_P1;SDS_P2;PMS_P1;PMS_P2;Temp;Humidity;BMP_temperature;BMP_pressure;BME280_temperature;BME280_humidity;BME280_pressure;Samples;Min_cycle;Max_cycle;Signal;HPM_P1;HPM_P2
2021/09/30 00:01:21;;;;;;;8.63;3.50;;;10.10;64.60;;;;;;4993055;28;20390;-74
2021/09/30 00:03:46;;;;;;;8.88;3.58;;;10.20;63.30;;;;;;4994664;28;20418;-76
2021/09/30 00:06:12;;;;;;;5.68;3.70;;;10.50;58.90;;;;;;4993369;28;20437;-76
2021/09/30 00:08:38;;;;;;;11.45;3.45;;;10.40;59.70;;;;;;4993337;28;20837;-76
2021/09/30 00:11:12;;;;;;;6.00;3.00;;;10.40;61.40;;;;;;4975251;28;20455;-76
2021/09/30 00:13:44;;;;;;;7.40;3.10;;;10.50;59.30;;;;;;4972327;28;20419;-76
2021/09/30 00:48:07;;;;;;;7.35;3.38;;;9.90;65.30;;;;;;4980705;28;20908;-75
2021/09/30 00:51:07;;;;;;;6.75;3.35;;;9.90;65.60;;;;;;4978596;28;20395;-75
2021/09/30 01:19:36;;;;;;;4.57;2.80;;;10.00;64.50;;;;;;4975665;28;20439;-75
2021/09/30 01:27:24;;;;;;;10.10;2.80;;;9.90;63.30;;;;;;4973915;28;20534;-75
2021/09/30 02:25:41;;;;;;;17.00;10.52;;;9.70;64.60;;;;;;4974108;28;20439;-74
2021/09/30 02:39:55;;;;;;;15.90;10.05;;;9.70;65.20;;;;;;4974057;28;20534;-76
2021/09/30 02:59:07;;;;;;;25.23;15.25;;;9.50;67.80;;;;;;4974908;28;20435;-74
2021/09/30 03:01:34;;;;;;;18.95;10.95;;;9.40;66.70;;;;;;4971832;28;20396;-75
2021/09/30 03:04:01;;;;;;;14.90;8.07;;;9.60;65.90;;;;;;4973321;28;20392;-74
2021/09/30 03:06:27;;;;;;;20.10;8.70;;;9.60;66.10;;;;;;4972805;28;20594;-74
2021/09/30 03:08:58;;;;;;;16.52;6.60;;;9.50;65.60;;;;;;4972534;28;20392;-74
2021/09/30 03:11:26;;;;;;;17.43;7.70;;;9.50;66.50;;;;;;4972781;28;20431;-74
2021/09/30 03:13:53;;;;;;;18.23;7.90;;;9.50;68.00;;;;;;4973069;28;20830;-75
2021/09/30 03:19:20;;;;;;;15.88;7.95;;;9.50;66.20;;;;;;4973299;28;20404;-75
2021/09/30 03:24:32;;;;;;;16.95;7.78;;;9.40;66.70;;;;;;4953933;29;20386;-74
2021/09/30 03:26:59;;;;;;;16.92;8.98;;;9.40;65.20;;;;;;4971429;28;20408;-74
2021/09/30 03:29:25;;;;;;;11.68;7.28;;;9.50;63.60;;;;;;4971604;28;20406;-75
2021/09/30 03:31:51;;;;;;;13.88;7.28;;;9.40;66.70;;;;;;4972551;28;20487;-75
2021/09/30 03:34:17;;;;;;;13.43;7.27;;;9.40;67.70;;;;;;4972682;28;20726;-75
2021/09/30 03:36:43;;;;;;;20.83;7.30;;;9.40;66.30;;;;;;4971975;28;20472;-75
2021/09/30 03:39:13;;;;;;;19.77;8.35;;;9.30;67.40;;;;;;4972742;28;20415;-75
2021/09/30 03:41:42;;;;;;;18.37;9.17;;;9.40;67.70;;;;;;4972875;28;20396;-75
2021/09/30 03:44:10;;;;;;;14.90;8.30;;;9.50;67.80;;;;;;4972736;28;20404;-76
2021/09/30 03:46:36;;;;;;;12.60;8.23;;;9.40;66.70;;;;;;4974975;28;20417;-76
2021/09/30 03:49:08;;;;;;;22.27;9.37;;;9.40;67.70;;;;;;4972538;28;20391;-74
2021/09/30 03:54:39;;;;;;;29.75;12.70;;;9.20;67.80;;;;;;4974495;28;20423;-75
2021/09/30 03:57:11;;;;;;;18.98;11.82;;;9.20;68.20;;;;;;4985470;28;20406;-75
2021/09/30 03:59:37;;;;;;;21.85;11.88;;;9.20;69.50;;;;;;4992013;28;20431;-74
2021/09/30 04:02:03;;;;;;;17.08;12.10;;;9.20;69.30;;;;;;4992843;28;20378;-74
2021/09/30 04:04:34;;;;;;;20.23;10.80;;;9.20;69.10;;;;;;4992162;28;20390;-74
2021/09/30 04:07:03;;;;;;;22.63;13.90;;;9.20;69.90;;;;;;4987407;28;20400;-75
2021/09/30 04:09:29;;;;;;;23.00;13.32;;;9.30;66.00;;;;;;4976662;28;20392;-76
2021/09/30 04:12:00;;;;;;;20.75;11.52;;;9.30;65.10;;;;;;4975339;28;20392;-75
2021/09/30 04:14:27;;;;;;;23.75;13.60;;;9.30;65.70;;;;;;4973961;28;20471;-75
2021/09/30 04:16:53;;;;;;;25.33;13.80;;;9.30;65.00;;;;;;4972707;28;20762;-75
2021/09/30 04:19:20;;;;;;;22.77;12.60;;;9.30;62.80;;;;;;4971471;28;20901;-74
2021/09/30 04:21:47;;;;;;;19.30;11.25;;;9.30;63.00;;;;;;4970981;28;20547;-75
2021/09/30 04:24:13;;;;;;;22.35;8.30;;;9.20;63.30;;;;;;4972058;28;20895;-75
2021/09/30 04:26:39;;;;;;;13.73;6.70;;;9.30;65.30;;;;;;4971906;28;20472;-75
2021/09/30 04:29:05;;;;;;;18.20;5.73;;;9.40;64.10;;;;;;4971882;28;20423;-75
2021/09/30 04:31:31;;;;;;;16.50;7.28;;;9.30;64.10;;;;;;4971505;28;20843;-74
2021/09/30 04:33:56;;;;;;;10.60;6.10;;;9.30;64.20;;;;;;4971490;28;20411;-74
2021/09/30 04:36:22;;;;;;;15.23;5.43;;;9.30;64.90;;;;;;4970706;28;20479;-74
2021/09/30 04:38:49;;;;;;;11.38;4.18;;;9.30;64.90;;;;;;4952362;28;20745;-73
2021/09/30 04:41:20;;;;;;;10.05;4.28;;;9.30;66.00;;;;;;4965948;28;20497;-75
2021/09/30 04:43:46;;;;;;;11.13;4.55;;;9.30;65.90;;;;;;4969175;28;20853;-76
2021/09/30 04:46:13;;;;;;;13.38;4.50;;;9.30;65.90;;;;;;4971219;28;20400;-77
2021/09/30 04:48:39;;;;;;;14.07;3.90;;;9.20;64.30;;;;;;4969909;28;20407;-74
2021/09/30 04:51:04;;;;;;;10.32;4.20;;;9.20;65.80;;;;;;4971213;28;20404;-74
2021/09/30 04:53:30;;;;;;;11.07;4.20;;;9.20;65.20;;;;;;4972152;28;20443;-75
2021/09/30 04:55:55;;;;;;;16.75;4.25;;;9.20;64.60;;;;;;4974412;28;20410;-74
2021/09/30 04:58:21;;;;;;;11.48;4.40;;;9.10;66.00;;;;;;4970592;28;20740;-72
2021/09/30 05:00:47;;;;;;;15.20;4.60;;;9.10;65.70;;;;;;4971028;28;20802;-73
2021/09/30 05:03:12;;;;;;;18.83;6.87;;;9.10;67.50;;;;;;4971037;28;20388;-72
2021/09/30 05:05:38;;;;;;;15.20;7.23;;;9.10;64.90;;;;;;4971463;28;20388;-73
2021/09/30 05:08:06;;;;;;;19.30;6.30;;;9.10;65.80;;;;;;4971219;28;20418;-74
2021/09/30 05:10:33;;;;;;;15.93;6.57;;;9.00;66.80;;;;;;4971703;28;20400;-73
2021/09/30 05:13:04;;;;;;;10.55;4.10;;;9.00;67.50;;;;;;4970854;28;20406;-74
2021/09/30 05:15:30;;;;;;;11.30;4.47;;;9.00;70.50;;;;;;4971758;28;20396;-74
2021/09/30 05:17:56;;;;;;;12.57;3.83;;;9.00;67.00;;;;;;4972006;28;20388;-75
2021/09/30 05:20:21;;;;;;;9.17;4.17;;;9.00;66.80;;;;;;4971606;28;20387;-74
2021/09/30 05:22:47;;;;;;;14.57;5.47;;;9.00;68.10;;;;;;4971131;28;20391;-75
2021/09/30 05:25:13;;;;;;;11.35;5.30;;;8.90;68.40;;;;;;4971001;28;20868;-74
2021/09/30 05:27:38;;;;;;;14.98;7.82;;;8.90;68.10;;;;;;4971130;28;20393;-75
2021/09/30 05:30:05;;;;;;;12.85;5.55;;;9.00;68.20;;;;;;4971566;28;20396;-75
2021/09/30 05:32:30;;;;;;;14.00;6.07;;;9.00;66.10;;;;;;4974270;28;20495;-74
2021/09/30 05:34:56;;;;;;;14.90;4.30;;;9.00;68.10;;;;;;4974552;28;20434;-74
2021/09/30 05:37:21;;;;;;;14.37;4.97;;;8.90;68.60;;;;;;4974501;28;20392;-74
2021/09/30 05:39:47;;;;;;;16.87;5.83;;;8.90;69.10;;;;;;4974450;28;20399;-74
2021/09/30 05:42:14;;;;;;;12.45;5.60;;;9.00;66.40;;;;;;4974030;28;20461;-75
2021/09/30 05:44:40;;;;;;;17.70;6.93;;;9.00;66.60;;;;;;4973218;28;20798;-74
2021/09/30 05:47:06;;;;;;;18.20;6.50;;;9.10;66.00;;;;;;4974565;28;20388;-74
2021/09/30 05:49:32;;;;;;;18.95;6.68;;;9.00;66.20;;;;;;4974931;28;20463;-73
2021/09/30 05:51:58;;;;;;;16.70;7.22;;;9.00;66.80;;;;;;4974394;28;20396;-74
2021/09/30 05:54:23;;;;;;;15.67;6.80;;;9.00;67.70;;;;;;4975785;28;20408;-75
2021/09/30 05:56:49;;;;;;;12.40;5.13;;;9.00;69.10;;;;;;4988344;28;20741;-74
2021/09/30 05:59:20;;;;;;;14.53;5.20;;;9.00;69.10;;;;;;5000201;28;20430;-74
2021/09/30 06:12:50;;;;;;;17.98;4.47;;;9.10;67.10;;;;;;4976643;28;20387;-73
2021/09/30 06:15:17;;;;;;;14.55;4.50;;;9.10;69.20;;;;;;4976363;28;20400;-73
2021/09/30 06:17:45;;;;;;;14.48;4.50;;;9.20;69.00;;;;;;4974658;28;20404;-74
2021/09/30 06:20:12;;;;;;;11.43;4.32;;;9.20;67.40;;;;;;4975637;28;20411;-73
2021/09/30 06:22:38;;;;;;;14.65;5.10;;;9.30;65.60;;;;;;4974375;28;20392;-74
2021/09/30 06:25:04;;;;;;;16.27;5.10;;;9.30;65.90;;;;;;4974457;28;20399;-74
2021/09/30 06:27:30;;;;;;;12.57;4.50;;;9.30;65.70;;;;;;4973646;28;20392;-75
2021/09/30 06:29:56;;;;;;;17.42;5.97;;;9.30;66.10;;;;;;4973590;28;20868;-75
2021/09/30 06:32:22;;;;;;;15.60;4.32;;;9.40;66.00;;;;;;4974521;28;20928;-75
2021/09/30 06:34:47;;;;;;;17.27;4.18;;;9.50;62.80;;;;;;4973697;28;20482;-74
2021/09/30 06:37:13;;;;;;;14.70;5.80;;;9.60;62.90;;;;;;4974178;28;20743;-74
2021/09/30 06:39:38;;;;;;;18.30;5.20;;;9.70;63.40;;;;;;4973509;28;20396;-74
2021/09/30 06:42:04;;;;;;;11.07;4.10;;;9.80;62.40;;;;;;4981307;28;20470;-74
2021/09/30 06:44:29;;;;;;;14.77;4.43;;;9.80;61.30;;;;;;4985081;28;20392;-74
2021/09/30 06:46:55;;;;;;;14.70;5.60;;;9.90;59.10;;;;;;4977465;28;20400;-74
2021/09/30 06:49:20;;;;;;;11.67;4.50;;;10.00;54.70;;;;;;4973758;28;20892;-73
2021/09/30 06:51:46;;;;;;;18.60;4.40;;;10.10;54.10;;;;;;4972544;28;20396;-74
2021/09/30 06:54:12;;;;;;;11.00;3.90;;;10.20;53.40;;;;;;4973967;28;20471;-74
2021/09/30 06:56:37;;;;;;;16.77;4.10;;;10.30;52.70;;;;;;4986832;28;20398;-75
2021/09/30 06:59:08;;;;;;;9.17;3.80;;;10.40;52.10;;;;;;5001457;28;20406;-75
2021/09/30 07:01:35;;;;;;;9.60;4.10;;;10.40;52.30;;;;;;5002226;28;20954;-75
2021/09/30 07:04:05;;;;;;;12.35;4.35;;;10.60;50.50;;;;;;5001155;28;20394;-73
2021/09/30 07:06:31;;;;;;;9.30;4.57;;;10.60;49.50;;;;;;4992441;28;20710;-74
2021/09/30 07:08:57;;;;;;;19.90;5.10;;;10.70;49.30;;;;;;4986939;28;20396;-74
2021/09/30 07:11:22;;;;;;;11.52;4.85;;;10.70;50.00;;;;;;4972895;28;20402;-74
2021/09/30 07:13:48;;;;;;;11.40;4.10;;;10.80;49.90;;;;;;4971372;28;20503;-75
2021/09/30 07:16:14;;;;;;;12.47;3.90;;;11.00;47.60;;;;;;4972664;28;20490;-75
2021/09/30 07:18:39;;;;;;;15.70;4.30;;;11.00;47.50;;;;;;4971844;28;20380;-75
2021/09/30 07:21:05;;;;;;;17.13;4.60;;;11.10;45.80;;;;;;4972000;28;20504;-75
2021/09/30 07:23:31;;;;;;;11.77;3.67;;;11.10;45.20;;;;;;4971869;28;20916;-74
2021/09/30 07:25:58;;;;;;;15.70;3.58;;;11.20;44.50;;;;;;4972508;28;20469;-74
2021/09/30 07:28:24;;;;;;;14.10;4.25;;;11.40;43.60;;;;;;4971763;28;20453;-73
2021/09/30 07:30:50;;;;;;;17.00;4.30;;;11.50;42.40;;;;;;4971556;28;20400;-73
2021/09/30 07:33:17;;;;;;;10.25;4.10;;;11.50;41.60;;;;;;4970426;28;21020;-74
2021/09/30 07:35:43;;;;;;;9.90;3.50;;;11.50;42.00;;;;;;4971667;28;20842;-74
2021/09/30 07:38:09;;;;;;;10.80;3.75;;;11.60;41.80;;;;;;4972120;28;20878;-74
2021/09/30 07:40:35;;;;;;;13.37;3.50;;;11.70;40.70;;;;;;4972290;28;20423;-74
2021/09/30 07:43:01;;;;;;;11.82;3.53;;;11.70;40.10;;;;;;4972154;28;20388;-73
2021/09/30 07:45:27;;;;;;;11.40;3.60;;;11.80;39.70;;;;;;4973827;28;20392;-73
2021/09/30 07:47:52;;;;;;;12.88;4.65;;;11.90;39.00;;;;;;4970749;28;20503;-74
2021/09/30 07:50:18;;;;;;;11.90;4.10;;;12.10;39.40;;;;;;4971147;28;20412;-76
2021/09/30 07:52:45;;;;;;;8.95;3.20;;;12.20;38.30;;;;;;4970847;28;20408;-75
2021/09/30 07:55:11;;;;;;;9.80;4.82;;;12.40;38.30;;;;;;4971402;28;20770;-74
2021/09/30 07:57:37;;;;;;;14.70;3.83;;;12.40;37.30;;;;;;4989749;28;20401;-74
2021/09/30 08:00:05;;;;;;;17.55;4.43;;;12.50;37.20;;;;;;4980581;28;20874;-76
2021/09/30 08:02:31;;;;;;;13.15;3.75;;;12.70;36.20;;;;;;4972099;28;20757;-73
2021/09/30 08:04:57;;;;;;;12.80;4.50;;;12.70;36.00;;;;;;4971631;28;20488;-76
2021/09/30 08:07:22;;;;;;;23.60;4.47;;;12.80;36.10;;;;;;4971476;28;20396;-76
2021/09/30 08:09:48;;;;;;;13.33;3.83;;;12.90;36.00;;;;;;4976984;28;20452;-77
2021/09/30 08:12:14;;;;;;;11.17;3.20;;;12.80;35.00;;;;;;4978001;28;20452;-76
2021/09/30 08:14:39;;;;;;;14.13;3.50;;;12.60;35.80;;;;;;4977450;28;20432;-76
2021/09/30 08:17:05;;;;;;;8.73;3.43;;;12.60;36.00;;;;;;4976095;28;20511;-76
2021/09/30 08:19:31;;;;;;;9.90;3.60;;;12.70;36.00;;;;;;4972204;28;20888;-76
2021/09/30 08:21:57;;;;;;;16.00;6.97;;;12.70;36.50;;;;;;4974860;28;20403;-75
2021/09/30 08:24:22;;;;;;;13.68;4.88;;;12.80;35.70;;;;;;4975566;28;20395;-75
2021/09/30 08:26:49;;;;;;;16.60;4.10;;;12.80;35.50;;;;;;4972095;28;20450;-78
2021/09/30 08:29:16;;;;;;;11.52;3.90;;;13.00;35.10;;;;;;4971141;28;20411;-76
2021/09/30 08:31:42;;;;;;;12.73;4.03;;;13.20;34.30;;;;;;4970078;28;20422;-74
2021/09/30 08:34:08;;;;;;;10.33;4.30;;;13.40;33.30;;;;;;4970835;28;20970;-74
2021/09/30 08:36:34;;;;;;;15.02;4.03;;;13.50;33.10;;;;;;4970365;28;20384;-74
2021/09/30 08:39:00;;;;;;;15.05;4.50;;;13.60;32.30;;;;;;4974076;28;20862;-75
2021/09/30 08:41:26;;;;;;;12.93;4.40;;;13.70;32.00;;;;;;4975538;28;20424;-74
2021/09/30 08:43:52;;;;;;;13.50;3.73;;;13.80;32.10;;;;;;4973544;28;20451;-74
2021/09/30 08:46:19;;;;;;;11.30;3.40;;;13.90;31.60;;;;;;4971467;28;20411;-75
2021/09/30 08:48:46;;;;;;;12.60;3.45;;;13.90;31.40;;;;;;4971898;28;20392;-74
2021/09/30 08:51:13;;;;;;;17.27;3.65;;;13.80;31.60;;;;;;4971166;28;20404;-74
2021/09/30 08:53:39;;;;;;;18.25;4.97;;;13.70;31.60;;;;;;4971520;28;20419;-73
2021/09/30 08:56:07;;;;;;;18.02;5.25;;;13.80;32.50;;;;;;4977614;28;20411;-75
2021/09/30 08:58:33;;;;;;;35.03;7.18;;;13.80;32.30;;;;;;4978645;28;20779;-74
2021/09/30 09:00:59;;;;;;;13.93;3.35;;;13.90;32.00;;;;;;4971966;28;20455;-74
2021/09/30 09:03:48;;;;;;;13.07;3.63;;;13.90;31.40;;;;;;4972441;28;20399;-74
2021/09/30 09:06:32;;;;;;;18.05;3.35;;;14.00;31.70;;;;;;4974492;28;20432;-73
2021/09/30 09:09:19;;;;;;;8.48;3.25;;;14.20;31.40;;;;;;4976442;28;20754;-75
2021/09/30 09:11:45;;;;;;;10.85;3.45;;;14.10;30.60;;;;;;4975784;28;20400;-73
2021/09/30 09:14:11;;;;;;;12.40;2.80;;;14.20;30.20;;;;;;4975341;28;20477;-75
2021/09/30 09:16:36;;;;;;;11.23;3.20;;;14.30;29.60;;;;;;4977798;28;20400;-74
2021/09/30 09:19:02;;;;;;;10.47;3.40;;;14.20;29.80;;;;;;4975136;28;20428;-75
2021/09/30 09:21:28;;;;;;;11.17;3.23;;;14.40;28.80;;;;;;4977156;28;20441;-74
2021/09/30 09:23:54;;;;;;;15.20;3.63;;;14.40;28.40;;;;;;4975324;28;20785;-73
2021/09/30 09:26:29;;;;;;;10.55;3.70;;;14.60;28.10;;;;;;4975237;28;20423;-75
2021/09/30 09:29:13;;;;;;;15.60;3.80;;;14.70;28.30;;;;;;4973983;28;20439;-75
2021/09/30 09:31:47;;;;;;;10.85;3.08;;;14.80;27.90;;;;;;4974005;28;20818;-75
2021/09/30 09:34:22;;;;;;;10.75;3.72;;;14.90;28.00;;;;;;4978715;28;20459;-74
2021/09/30 09:36:51;;;;;;;13.25;3.40;;;15.10;27.40;;;;;;4975811;28;20396;-74
2021/09/30 09:39:37;;;;;;;12.27;3.30;;;15.10;26.50;;;;;;4976694;28;20482;-74
2021/09/30 09:42:08;;;;;;;10.95;3.08;;;15.20;25.50;;;;;;4978841;28;20551;-75
2021/09/30 09:44:49;;;;;;;8.50;2.90;;;15.30;24.70;;;;;;4979329;28;20388;-73
2021/09/30 09:47:27;;;;;;;10.02;2.92;;;15.40;25.60;;;;;;4975412;28;20400;-75
2021/09/30 09:50:11;;;;;;;11.90;3.33;;;15.50;25.50;;;;;;4975527;28;20422;-73
2021/09/30 09:52:47;;;;;;;14.88;3.10;;;15.60;25.00;;;;;;4978898;28;20398;-73
2021/09/30 09:55:15;;;;;;;10.18;3.40;;;15.60;23.50;;;;;;4992161;28;20419;-71
2021/09/30 09:57:40;;;;;;;9.70;2.70;;;15.60;24.50;;;;;;4993318;28;20471;-76
2021/09/30 10:00:16;;;;;;;9.00;2.90;;;15.60;23.20;;;;;;4977719;28;20442;-73
2021/09/30 10:02:42;;;;;;;11.52;2.60;;;15.60;23.10;;;;;;4976995;28;20495;-75
2021/09/30 10:05:08;;;;;;;11.00;3.10;;;15.70;22.60;;;;;;4979902;28;20403;-78
2021/09/30 10:07:34;;;;;;;10.55;2.83;;;15.70;22.50;;;;;;4979027;28;20408;-76
2021/09/30 10:10:00;;;;;;;9.77;2.30;;;15.60;21.90;;;;;;4979188;28;20440;-76
2021/09/30 10:12:26;;;;;;;6.00;2.60;;;15.70;22.70;;;;;;4978037;28;20423;-76
2021/09/30 10:14:52;;;;;;;5.97;2.50;;;15.70;22.50;;;;;;4977865;28;20424;-76
2021/09/30 10:17:20;;;;;;;8.35;2.60;;;15.80;22.20;;;;;;4975918;28;20908;-76
2021/09/30 10:19:45;;;;;;;12.05;2.85;;;15.90;21.60;;;;;;4976222;28;20408;-75
2021/09/30 10:22:11;;;;;;;8.40;2.30;;;15.90;19.90;;;;;;4979215;28;20762;-74
2021/09/30 10:24:37;;;;;;;11.80;2.23;;;15.90;19.60;;;;;;4979796;28;20491;-77
2021/09/30 10:27:03;;;;;;;12.68;2.80;;;15.90;19.30;;;;;;4977791;28;20416;-76
2021/09/30 10:29:45;;;;;;;8.23;2.30;;;15.80;20.00;;;;;;4978380;28;20403;-76
2021/09/30 10:32:13;;;;;;;9.48;2.40;;;15.70;19.60;;;;;;4977934;28;20431;-75
2021/09/30 10:34:41;;;;;;;7.28;2.40;;;15.60;19.60;;;;;;4976181;28;20424;-76
2021/09/30 10:37:31;;;;;;;12.68;2.38;;;15.60;20.40;;;;;;4975451;28;20407;-76
2021/09/30 10:40:20;;;;;;;9.13;1.85;;;15.70;20.70;;;;;;4975217;28;20474;-76
2021/09/30 10:42:58;;;;;;;10.85;3.08;;;15.80;20.00;;;;;;4974842;28;20483;-76
2021/09/30 10:45:40;;;;;;;10.52;2.33;;;15.90;20.30;;;;;;4974087;28;20432;-76
2021/09/30 10:48:34;;;;;;;10.38;2.67;;;16.20;18.50;;;;;;4956642;28;20409;-75
2021/09/30 10:51:06;;;;;;;5.32;1.80;;;16.20;17.90;;;;;;4957396;28;20404;-77
2021/09/30 10:53:47;;;;;;;8.25;2.60;;;16.40;18.80;;;;;;4973473;28;20486;-74
2021/09/30 10:56:29;;;;;;;8.90;2.30;;;16.50;17.20;;;;;;4972196;28;20491;-75
2021/09/30 10:59:07;;;;;;;7.97;2.55;;;16.40;17.40;;;;;;4973048;28;20399;-75
2021/09/30 11:01:47;;;;;;;7.93;2.10;;;16.30;17.10;;;;;;4971438;28;20510;-75
2021/09/30 11:04:16;;;;;;;8.55;1.90;;;16.10;16.60;;;;;;4973751;28;20392;-75
2021/09/30 11:06:42;;;;;;;6.45;1.77;;;16.10;16.80;;;;;;4973279;28;20762;-75
2021/09/30 11:09:21;;;;;;;21.98;6.80;;;16.30;16.90;;;;;;4972447;28;20388;-76
2021/09/30 11:12:08;;;;;;;12.43;2.40;;;16.60;17.30;;;;;;4971183;28;20403;-75
2021/09/30 11:14:50;;;;;;;18.93;4.40;;;17.10;16.50;;;;;;4969134;28;20408;-76
2021/09/30 11:17:32;;;;;;;20.58;4.20;;;17.20;17.10;;;;;;4976361;28;20384;-76
2021/09/30 11:20:29;;;;;;;10.50;2.20;;;17.40;15.50;;;;;;4957610;29;20749;-77
2021/09/30 11:22:55;;;;;;;38.00;6.43;;;17.40;15.30;;;;;;4955123;28;20759;-75
2021/09/30 11:25:20;;;;;;;6.63;2.27;;;17.60;15.30;;;;;;4959835;28;20402;-77
2021/09/30 11:27:46;;;;;;;10.33;2.30;;;17.60;14.90;;;;;;4973275;28;20797;-76
2021/09/30 11:30:21;;;;;;;5.70;1.90;;;17.90;15.40;;;;;;4973169;28;20499;-74
2021/09/30 11:32:48;;;;;;;6.45;2.45;;;18.00;14.60;;;;;;4955003;28;20398;-75
2021/09/30 11:35:14;;;;;;;5.93;1.77;;;17.90;14.60;;;;;;4961965;28;20455;-76
2021/09/30 11:37:43;;;;;;;7.40;2.00;;;17.90;14.20;;;;;;4974812;28;20420;-77
2021/09/30 11:40:15;;;;;;;7.60;2.10;;;17.80;15.20;;;;;;4973571;28;20388;-75
2021/09/30 11:42:44;;;;;;;7.60;2.33;;;17.80;14.90;;;;;;4975012;28;20487;-75
2021/09/30 11:45:12;;;;;;;9.52;1.80;;;17.80;13.90;;;;;;4980412;28;20396;-74
2021/09/30 11:47:39;;;;;;;7.35;1.80;;;17.50;12.70;;;;;;4962629;28;20477;-76
2021/09/30 11:50:07;;;;;;;6.65;1.70;;;17.30;14.30;;;;;;4974046;28;20389;-76
2021/09/30 11:52:33;;;;;;;7.00;1.90;;;17.20;14.90;;;;;;4974371;28;20398;-77
2021/09/30 11:55:16;;;;;;;8.15;2.00;;;17.40;14.20;;;;;;4976644;28;20790;-75
2021/09/30 11:57:55;;;;;;;8.60;2.00;;;17.50;13.50;;;;;;4994196;28;20387;-77
2021/09/30 12:00:22;;;;;;;5.93;1.75;;;17.40;13.70;;;;;;4997518;28;20403;-75
2021/09/30 12:03:01;;;;;;;5.40;2.20;;;17.20;14.40;;;;;;5002593;28;20395;-74
2021/09/30 12:05:31;;;;;;;7.57;2.00;;;17.00;15.20;;;;;;5003771;28;20505;-75
2021/09/30 12:08:02;;;;;;;5.65;1.83;;;16.90;16.10;;;;;;4997143;28;20425;-76
2021/09/30 12:10:32;;;;;;;10.30;1.95;;;16.90;15.20;;;;;;4990454;28;20771;-77
2021/09/30 12:12:59;;;;;;;16.17;2.05;;;17.00;15.30;;;;;;4972975;28;20391;-74
2021/09/30 12:15:25;;;;;;;5.95;1.75;;;17.00;15.00;;;;;;4973723;28;20387;-75
2021/09/30 12:17:51;;;;;;;8.80;1.80;;;17.20;14.20;;;;;;4974982;28;20391;-76
2021/09/30 12:20:18;;;;;;;6.13;2.10;;;17.40;14.60;;;;;;4975174;28;20455;-76
2021/09/30 12:22:47;;;;;;;5.60;1.80;;;17.60;14.80;;;;;;4974555;28;20407;-75
2021/09/30 12:25:15;;;;;;;5.70;1.70;;;17.70;14.70;;;;;;4974826;28;20454;-76
2021/09/30 12:27:45;;;;;;;6.28;2.30;;;17.90;14.90;;;;;;4977112;28;20396;-76
2021/09/30 12:30:23;;;;;;;7.53;2.30;;;18.00;14.90;;;;;;4973394;28;20454;-75
2021/09/30 12:32:52;;;;;;;7.78;2.08;;;18.20;14.40;;;;;;4975965;28;20894;-77
2021/09/30 12:35:28;;;;;;;7.65;2.03;;;18.40;14.40;;;;;;4973702;28;20474;-77
2021/09/30 12:37:57;;;;;;;7.88;2.00;;;18.50;14.10;;;;;;4975822;28;20383;-77
2021/09/30 12:40:33;;;;;;;9.65;1.80;;;18.70;13.80;;;;;;4978088;28;21019;-77
2021/09/30 12:43:04;;;;;;;9.13;2.20;;;18.70;12.60;;;;;;4976607;28;20395;-75
2021/09/30 12:45:32;;;;;;;6.88;2.20;;;18.60;12.80;;;;;;4978279;28;20450;-76
2021/09/30 12:48:12;;;;;;;8.77;2.30;;;18.30;13.90;;;;;;4976046;28;20388;-76
2021/09/30 12:50:42;;;;;;;15.17;2.10;;;18.20;14.20;;;;;;4976520;28;20921;-77
2021/09/30 12:53:11;;;;;;;9.68;1.90;;;18.20;14.60;;;;;;4977094;28;20390;-76
2021/09/30 12:55:37;;;;;;;5.32;2.00;;;18.30;14.50;;;;;;4981450;28;20396;-76
2021/09/30 12:58:03;;;;;;;9.10;2.38;;;18.60;14.90;;;;;;4997624;28;20390;-76
2021/09/30 13:00:35;;;;;;;7.35;2.30;;;18.60;14.30;;;;;;4997400;28;20382;-76
2021/09/30 13:03:16;;;;;;;9.18;2.00;;;18.70;14.20;;;;;;4997021;28;20389;-74
2021/09/30 13:05:46;;;;;;;8.85;2.33;;;18.80;14.20;;;;;;4996675;28;20395;-76
2021/09/30 13:08:11;;;;;;;6.72;2.10;;;18.90;13.70;;;;;;4996368;28;20863;-74
2021/09/30 13:10:37;;;;;;;8.65;2.00;;;18.80;14.40;;;;;;4995807;28;20415;-77
2021/09/30 13:13:07;;;;;;;14.18;2.60;;;18.70;14.90;;;;;;4974640;28;20905;-76
2021/09/30 13:15:40;;;;;;;9.50;2.20;;;18.70;14.80;;;;;;4975731;28;20471;-77
2021/09/30 13:18:09;;;;;;;10.35;2.10;;;18.50;15.00;;;;;;4975653;28;20385;-73
2021/09/30 13:20:36;;;;;;;7.43;2.00;;;18.40;15.10;;;;;;4976462;28;20388;-77
2021/09/30 13:23:01;;;;;;;8.68;2.20;;;18.40;14.80;;;;;;4975603;28;20388;-75
2021/09/30 13:25:27;;;;;;;6.97;2.25;;;18.50;15.00;;;;;;4974742;28;20396;-76
2021/09/30 13:27:53;;;;;;;6.18;1.83;;;18.20;15.10;;;;;;4975395;28;20826;-74
2021/09/30 13:30:31;;;;;;;6.57;2.15;;;18.00;15.70;;;;;;4974751;28;20428;-76
2021/09/30 13:32:58;;;;;;;10.90;2.55;;;17.80;14.90;;;;;;4956373;28;20398;-76
2021/09/30 13:35:26;;;;;;;8.45;2.35;;;17.90;15.20;;;;;;4966005;28;20384;-74
2021/09/30 13:37:53;;;;;;;8.77;2.33;;;18.10;15.40;;;;;;4975908;28;20879;-76
2021/09/30 13:40:20;;;;;;;8.20;2.20;;;18.30;14.50;;;;;;4973053;28;20739;-75
2021/09/30 13:42:45;;;;;;;6.65;1.63;;;18.10;14.70;;;;;;4974497;28;20942;-75
2021/09/30 13:45:13;;;;;;;8.77;2.00;;;17.80;14.70;;;;;;4974244;28;20458;-75
2021/09/30 13:47:39;;;;;;;5.60;1.92;;;17.60;15.60;;;;;;4972551;28;20470;-75
2021/09/30 13:50:08;;;;;;;13.60;2.58;;;17.50;15.90;;;;;;4974670;28;20674;-74
2021/09/30 13:52:34;;;;;;;12.60;2.10;;;17.40;16.00;;;;;;4973961;28;20396;-76
2021/09/30 13:54:59;;;;;;;9.80;2.77;;;17.30;16.70;;;;;;4971955;28;20434;-75
2021/09/30 13:57:25;;;;;;;7.00;2.20;;;17.30;16.80;;;;;;4974342;28;20470;-76
2021/09/30 13:59:51;;;;;;;8.60;2.35;;;17.40;16.60;;;;;;4974257;28;20411;-73
2021/09/30 14:02:16;;;;;;;8.70;2.00;;;17.40;16.60;;;;;;4973805;28;20471;-72
2021/09/30 14:04:42;;;;;;;7.82;1.92;;;17.50;16.30;;;;;;4974220;28;20395;-71
2021/09/30 14:07:09;;;;;;;12.43;2.50;;;17.50;17.00;;;;;;4974158;28;20388;-73
2021/09/30 14:09:36;;;;;;;8.50;2.40;;;17.50;16.90;;;;;;4973251;28;20404;-73
2021/09/30 14:12:04;;;;;;;11.50;2.60;;;17.40;17.10;;;;;;4969426;28;20870;-72
2021/09/30 14:14:29;;;;;;;6.00;2.58;;;17.30;17.40;;;;;;4974517;28;20416;-74
2021/09/30 14:16:55;;;;;;;9.03;2.57;;;17.20;17.40;;;;;;4973449;28;20410;-72
2021/09/30 14:19:25;;;;;;;8.27;2.50;;;17.20;17.30;;;;;;4975155;28;20392;-73
2021/09/30 14:21:51;;;;;;;9.70;2.30;;;17.20;17.70;;;;;;4973957;28;20458;-73
2021/09/30 14:24:16;;;;;;;9.75;2.00;;;17.10;17.70;;;;;;4973136;28;20397;-75
2021/09/30 14:26:42;;;;;;;8.43;2.40;;;17.00;18.20;;;;;;4973994;28;20396;-73
2021/09/30 14:29:08;;;;;;;5.90;2.40;;;16.90;18.70;;;;;;4973263;28;20396;-74
2021/09/30 14:31:33;;;;;;;7.50;1.83;;;16.80;18.90;;;;;;4974049;28;20399;-73
2021/09/30 14:33:59;;;;;;;8.63;3.25;;;16.70;19.20;;;;;;4974590;28;20514;-74
2021/09/30 14:36:25;;;;;;;5.35;1.60;;;16.60;19.20;;;;;;4974900;28;20475;-75
2021/09/30 14:38:50;;;;;;;11.60;2.20;;;16.70;18.90;;;;;;4975050;28;20850;-75
2021/09/30 14:41:16;;;;;;;7.37;2.20;;;16.70;18.90;;;;;;4973477;28;20727;-74
2021/09/30 14:43:41;;;;;;;8.27;2.70;;;16.80;18.50;;;;;;4969594;28;20551;-75
2021/09/30 14:46:08;;;;;;;7.20;2.45;;;16.80;18.60;;;;;;4972329;28;20412;-74
2021/09/30 14:48:39;;;;;;;7.45;2.30;;;17.00;18.20;;;;;;4973046;28;20902;-74
2021/09/30 14:51:06;;;;;;;5.10;2.40;;;17.20;17.50;;;;;;4972991;28;20419;-74
2021/09/30 14:53:34;;;;;;;7.05;2.40;;;17.40;16.60;;;;;;4972763;28;20510;-74
2021/09/30 14:56:01;;;;;;;9.70;2.40;;;17.50;16.70;;;;;;4976808;28;20991;-74
2021/09/30 14:58:26;;;;;;;9.18;2.45;;;17.50;16.60;;;;;;4973548;28;20471;-75
2021/09/30 15:00:52;;;;;;;6.63;2.50;;;17.40;16.70;;;;;;4973393;28;20412;-75
2021/09/30 15:03:18;;;;;;;4.75;2.25;;;17.40;16.70;;;;;;4957868;28;20409;-77
2021/09/30 15:05:43;;;;;;;11.23;2.78;;;17.40;16.60;;;;;;4975972;28;20400;-76
2021/09/30 15:08:09;;;;;;;9.17;3.20;;;17.20;16.60;;;;;;4974065;28;20761;-76
2021/09/30 15:10:35;;;;;;;5.60;2.60;;;17.10;17.10;;;;;;4982380;28;20769;-76
2021/09/30 15:13:00;;;;;;;6.77;2.33;;;17.10;17.40;;;;;;4974960;28;20575;-75
2021/09/30 15:15:27;;;;;;;8.40;3.30;;;17.10;17.40;;;;;;4976520;28;20498;-75
2021/09/30 15:23:02;;;;;;;8.65;2.30;;;16.80;17.90;;;;;;4974132;28;20415;-76
2021/09/30 15:25:29;;;;;;;10.95;3.92;;;16.80;18.20;;;;;;4969025;28;20404;-76
2021/09/30 15:27:56;;;;;;;9.13;2.78;;;16.80;18.00;;;;;;4972584;28;20412;-77
2021/09/30 15:30:22;;;;;;;10.98;3.67;;;16.70;17.70;;;;;;4981830;28;20431;-75
2021/09/30 15:32:47;;;;;;;7.95;3.47;;;16.70;17.70;;;;;;4975857;28;20503;-75
2021/09/30 15:35:13;;;;;;;13.90;2.93;;;16.70;17.90;;;;;;4974756;28;20439;-78
2021/09/30 15:37:40;;;;;;;9.33;2.57;;;16.80;17.80;;;;;;4976288;28;20407;-75
2021/09/30 15:40:06;;;;;;;7.43;3.53;;;16.80;17.90;;;;;;4973358;28;20403;-77
2021/09/30 15:42:32;;;;;;;10.35;3.33;;;16.90;17.60;;;;;;4974164;28;20491;-77